This is the latest recevied weather packets stored in our database for station/object DH0GMA. If no packets are shown the sender has not sent any weather packets the latest 10 day(s).
| Time | Temp. | Humidity | Pressure | Rain* | Wind** | Luminosity | Snow |
|---|---|---|---|---|---|---|---|
| 1777887904 | 21.11° C | 50% | 1012.7 hPa | 0 mm | - | - | - |
| 1777887304 | 21.11° C | 49% | 1012.8 hPa | 0 mm | - | - | - |
| 1777886704 | 20.56° C | 50% | 1012.9 hPa | 0 mm | - | - | - |
| 1777886104 | 20.56° C | 52% | 1013 hPa | 0 mm | - | - | - |
| 1777885504 | 20° C | 53% | 1013 hPa | 0 mm | - | - | - |
| 1777884903 | 20° C | 51% | 1013.2 hPa | 0 mm | - | - | - |
| 1777884305 | 20° C | 51% | 1013.3 hPa | 0 mm | - | - | - |
| 1777883705 | 20° C | 54% | 1013.4 hPa | 0 mm | - | - | - |
| 1777883105 | 19.44° C | 55% | 1013.5 hPa | 0 mm | - | - | - |
| 1777882505 | 18.33° C | 57% | 1013.6 hPa | 0 mm | - | - | - |
| 1777881905 | 18.89° C | 56% | 1013.8 hPa | 0 mm | - | - | - |
| 1777881305 | 18.89° C | 55% | 1013.7 hPa | 0 mm | - | - | - |
| 1777880704 | 17.78° C | 58% | 1013.7 hPa | 0 mm | - | - | - |
| 1777880104 | 17.22° C | 58% | 1013.7 hPa | 0 mm | - | - | - |
| 1777879504 | 16.67° C | 63% | 1013.7 hPa | 0 mm | - | - | - |
| 1777878903 | 16.11° C | 65% | 1013.8 hPa | 0 mm | - | - | - |
| 1777878305 | 15.56° C | 67% | 1013.9 hPa | 0 mm | - | - | - |
| 1777877705 | 15.56° C | 66% | 1013.9 hPa | 0 mm | - | - | - |
| 1777877105 | 15° C | 67% | 1013.7 hPa | 0 mm | - | - | - |
| 1777876505 | 14.44° C | 70% | 1013.9 hPa | 0 mm | - | - | - |
| 1777875905 | 13.89° C | 72% | 1013.8 hPa | 0 mm | - | - | - |
| 1777875305 | 13.33° C | 73% | 1013.7 hPa | 0 mm | - | - | - |
| 1777874705 | 12.78° C | 75% | 1013.9 hPa | 0 mm | - | - | - |
| 1777874105 | 11.67° C | 77% | 1014 hPa | 0 mm | - | - | - |
| 1777873504 | 11.11° C | 77% | 1014 hPa | 0 mm | - | - | - |
* Rain latest hour (hover to see other rain measurements)
** Current wind speed in m/s (hover to see current wind gust speed)